Time;durP1;ratioP1;P1;durP2;ratioP2;P2;SDS_P1;SDS_P2;PMS_P1;PMS_P2;Temp;Humidity;BMP_temperature;BMP_pressure;BME280_temperature;BME280_humidity;BME280_pressure;Samples;Min_cycle;Max_cycle;Signal;HPM_P1;HPM_P2
2022/06/28 00:02:04;;;;;;;2.10;2.00;;;21.80;82.40;22.50;96927.00;;;;5022372;28;20276;-84
2022/06/28 00:04:31;;;;;;;2.30;2.20;;;21.80;81.90;22.60;96933.00;;;;5021008;28;20233;-84
2022/06/28 00:06:59;;;;;;;2.20;2.10;;;21.80;81.70;22.60;96937.00;;;;5013214;28;20229;-84
2022/06/28 00:09:28;;;;;;;3.13;2.47;;;21.90;81.70;22.60;96937.00;;;;5019609;28;20246;-84
2022/06/28 00:11:58;;;;;;;2.53;1.97;;;21.90;81.80;22.60;96937.00;;;;5009510;28;20743;-83
2022/06/28 00:17:11;;;;;;;2.33;2.13;;;21.90;81.90;22.70;96935.00;;;;5014106;28;20665;-83
2022/06/28 00:19:38;;;;;;;2.50;2.30;;;21.90;81.70;22.70;96950.00;;;;5007532;28;20226;-84
2022/06/28 00:22:05;;;;;;;2.47;2.37;;;21.90;81.70;22.70;96940.00;;;;5003308;28;20202;-83
2022/06/28 00:24:32;;;;;;;2.53;2.33;;;22.00;81.80;22.70;96943.00;;;;5028936;28;20277;-83
2022/06/28 00:27:00;;;;;;;2.33;2.13;;;22.00;82.60;22.70;96933.00;;;;5033430;28;20256;-83
2022/06/28 00:29:27;;;;;;;2.40;2.20;;;22.00;82.00;22.70;96932.00;;;;5038182;28;20185;-83
2022/06/28 00:31:54;;;;;;;2.20;2.10;;;22.00;81.90;22.80;96931.00;;;;5021309;28;20225;-84
2022/06/28 00:34:23;;;;;;;2.30;2.10;;;22.00;81.80;22.80;96938.00;;;;5031755;28;20236;-84
2022/06/28 00:36:50;;;;;;;2.83;2.63;;;22.10;81.70;22.80;96929.00;;;;4995911;28;20262;-84
2022/06/28 00:39:17;;;;;;;2.20;2.10;;;22.10;81.40;22.80;96929.00;;;;5009842;28;20303;-84
2022/06/28 00:41:45;;;;;;;2.50;2.30;;;22.00;81.40;22.80;96938.00;;;;5011500;28;20285;-82
2022/06/28 00:44:14;;;;;;;2.40;2.20;;;22.00;81.40;22.80;96945.00;;;;5013053;28;20210;-84
2022/06/28 00:46:42;;;;;;;2.20;2.10;;;22.00;81.20;22.80;96945.00;;;;5004216;28;20206;-84
2022/06/28 00:49:11;;;;;;;2.20;2.10;;;22.10;81.10;22.80;96950.00;;;;5027555;28;20671;-83
2022/06/28 00:51:40;;;;;;;2.40;2.20;;;22.10;81.20;22.80;96944.00;;;;5032109;28;20204;-84
2022/06/28 00:54:08;;;;;;;2.67;2.20;;;22.10;81.40;22.70;96939.00;;;;5032606;28;20190;-84
2022/06/28 00:56:36;;;;;;;2.50;2.17;;;22.10;81.30;22.70;96945.00;;;;4995681;28;20246;-83
2022/06/28 00:59:03;;;;;;;2.57;2.00;;;22.10;81.30;22.70;96950.00;;;;4993783;28;20614;-84
2022/06/28 01:01:31;;;;;;;2.90;2.30;;;22.00;81.00;22.70;96961.00;;;;5011274;28;20228;-83
2022/06/28 01:03:58;;;;;;;2.47;2.27;;;22.00;80.90;22.70;96961.00;;;;5012893;28;20202;-83
2022/06/28 01:06:26;;;;;;;2.13;2.03;;;22.10;81.10;22.70;96964.00;;;;5000659;28;20288;-83
2022/06/28 01:08:54;;;;;;;2.47;2.27;;;22.10;81.00;22.70;96971.00;;;;5003468;28;20204;-83
2022/06/28 01:11:21;;;;;;;2.67;2.40;;;22.10;81.00;22.70;96969.00;;;;5012132;28;20248;-83
2022/06/28 01:13:51;;;;;;;2.30;2.20;;;22.00;80.80;22.70;96965.00;;;;5007620;28;20660;-84
2022/06/28 01:16:20;;;;;;;2.30;2.20;;;22.00;80.60;22.60;96973.00;;;;5010194;28;20226;-84
2022/06/28 01:18:48;;;;;;;3.37;2.70;;;22.00;80.40;22.60;96980.00;;;;5018635;28;20661;-83
2022/06/28 01:21:17;;;;;;;2.30;2.17;;;22.00;80.20;22.60;96986.00;;;;5011907;28;20630;-84
2022/06/28 01:23:48;;;;;;;2.60;2.40;;;21.90;80.10;22.50;96991.00;;;;5022483;28;20286;-83
2022/06/28 01:26:20;;;;;;;2.43;2.00;;;21.90;80.30;22.50;97001.00;;;;5000171;28;20305;-84
2022/06/28 01:28:49;;;;;;;2.30;2.10;;;21.90;80.40;22.40;97000.00;;;;5001804;28;20206;-84
2022/06/28 01:31:19;;;;;;;2.60;2.40;;;21.80;80.50;22.40;97003.00;;;;4993111;28;20281;-83
2022/06/28 01:33:47;;;;;;;2.40;2.30;;;21.80;80.80;22.40;96999.00;;;;4999969;28;20237;-84
2022/06/28 01:36:15;;;;;;;2.33;2.23;;;21.80;81.60;22.40;97007.00;;;;5019042;28;20245;-84
2022/06/28 01:38:45;;;;;;;2.20;2.10;;;21.80;80.80;22.40;97002.00;;;;5012346;28;20232;-85
2022/06/28 01:41:32;;;;;;;2.30;2.10;;;21.80;80.90;22.50;96997.00;;;;4992944;28;20269;-85
2022/06/28 01:44:00;;;;;;;2.87;2.50;;;21.80;81.10;22.50;97007.00;;;;4999309;28;20210;-84
2022/06/28 01:46:28;;;;;;;2.20;2.10;;;21.80;81.10;22.50;97011.00;;;;5009524;28;20719;-84
2022/06/28 01:48:56;;;;;;;2.07;1.97;;;21.80;81.30;22.50;97012.00;;;;5012075;28;20667;-85
2022/06/28 01:51:23;;;;;;;2.20;2.10;;;21.80;81.40;22.50;97034.00;;;;5016718;28;20230;-83
2022/06/28 01:53:52;;;;;;;2.13;1.83;;;21.80;81.30;22.50;97036.00;;;;5011843;28;20609;-82
2022/06/28 01:56:19;;;;;;;2.37;2.17;;;21.80;81.30;22.50;97035.00;;;;5011072;28;20288;-83
2022/06/28 01:58:47;;;;;;;2.50;2.30;;;21.80;81.30;22.50;97023.00;;;;5011842;28;20237;-83
2022/06/28 02:01:14;;;;;;;2.27;1.73;;;21.80;81.30;22.60;97023.00;;;;5010719;28;20229;-83
2022/06/28 02:03:42;;;;;;;2.07;1.97;;;21.90;81.60;22.60;97034.00;;;;5018098;28;20281;-84
2022/06/28 02:06:09;;;;;;;3.00;2.50;;;21.90;81.60;22.60;97033.00;;;;5007735;28;20308;-83
2022/06/28 02:08:37;;;;;;;2.90;2.70;;;21.90;81.60;22.60;97038.00;;;;5029972;28;20229;-83
2022/06/28 02:11:08;;;;;;;3.07;2.63;;;21.90;82.00;22.60;97032.00;;;;5021814;28;20237;-81
2022/06/28 02:13:36;;;;;;;2.87;2.67;;;21.90;82.40;22.60;97029.00;;;;5024143;28;20635;-84
2022/06/28 02:16:03;;;;;;;2.67;2.47;;;21.90;82.60;22.60;97027.00;;;;5011157;28;20258;-84
2022/06/28 02:18:32;;;;;;;2.80;2.60;;;21.90;82.80;22.60;97024.00;;;;5021764;28;20203;-83
2022/06/28 02:20:59;;;;;;;3.10;2.80;;;21.90;83.00;22.60;97023.00;;;;5018443;28;20590;-83
2022/06/28 02:23:26;;;;;;;3.00;2.80;;;21.90;83.40;22.60;97016.00;;;;5011525;28;20237;-84
2022/06/28 02:25:54;;;;;;;2.87;2.67;;;21.90;83.70;22.60;97019.00;;;;5004774;28;20293;-83
2022/06/28 02:28:23;;;;;;;3.80;2.60;;;21.80;83.90;22.60;97023.00;;;;5008287;28;20280;-83
2022/06/28 02:30:50;;;;;;;3.20;3.00;;;21.80;84.00;22.50;97024.00;;;;4994069;28;20675;-83
2022/06/28 02:33:17;;;;;;;3.37;3.07;;;21.80;84.00;22.50;97027.00;;;;5015049;28;20581;-83
2022/06/28 02:41:13;;;;;;;3.17;2.87;;;21.70;84.00;22.40;97023.00;;;;5024689;28;20355;-84
2022/06/28 02:43:42;;;;;;;3.10;2.90;;;21.70;84.00;22.40;97021.00;;;;5015687;28;20221;-83
2022/06/28 02:46:09;;;;;;;3.03;2.77;;;21.70;84.10;22.30;97015.00;;;;5015516;28;20295;-83
2022/06/28 02:48:36;;;;;;;3.30;2.90;;;21.70;84.20;22.30;97017.00;;;;5033193;28;20251;-83
2022/06/28 02:51:04;;;;;;;3.10;2.90;;;21.60;84.10;22.30;97011.00;;;;5035705;28;20240;-83
2022/06/28 02:53:31;;;;;;;3.23;3.03;;;21.60;84.20;22.20;97007.00;;;;5023677;28;20289;-83
2022/06/28 02:55:58;;;;;;;2.83;2.63;;;21.60;84.10;22.20;97006.00;;;;5015565;28;20249;-83
2022/06/28 02:58:25;;;;;;;3.10;2.90;;;21.50;83.80;22.20;97013.00;;;;5009983;28;20288;-83
2022/06/28 03:00:54;;;;;;;3.07;2.87;;;21.50;83.90;22.10;97011.00;;;;5011958;28;20226;-83
2022/06/28 03:03:21;;;;;;;3.00;2.80;;;21.50;83.90;22.10;97003.00;;;;5008733;28;20206;-83
2022/06/28 03:05:48;;;;;;;3.33;3.13;;;21.50;84.00;22.00;97003.00;;;;5022790;28;20268;-82
2022/06/28 03:08:15;;;;;;;3.43;3.13;;;21.40;84.00;22.00;97002.00;;;;5030116;28;20207;-83
2022/06/28 03:10:43;;;;;;;3.07;2.80;;;21.40;84.10;22.00;97005.00;;;;5029140;28;20651;-84
2022/06/28 03:13:10;;;;;;;3.13;2.93;;;21.40;84.20;22.00;97002.00;;;;5000507;28;20230;-84
2022/06/28 03:15:37;;;;;;;3.37;3.17;;;21.40;84.30;21.90;97010.00;;;;5014976;28;20210;-83
2022/06/28 03:18:06;;;;;;;3.97;3.33;;;21.30;84.30;21.90;96997.00;;;;5014479;28;20271;-83
2022/06/28 03:20:34;;;;;;;3.77;3.37;;;21.30;84.40;21.90;96991.00;;;;5019427;28;20257;-83
2022/06/28 03:23:01;;;;;;;3.23;2.87;;;21.30;84.30;21.90;96989.00;;;;5022619;28;20197;-83
2022/06/28 03:25:28;;;;;;;3.50;3.20;;;21.30;84.30;21.80;96989.00;;;;5004647;28;20827;-83
2022/06/28 03:27:56;;;;;;;3.70;3.23;;;21.20;84.20;21.80;96986.00;;;;5011757;28;20194;-83
2022/06/28 03:30:23;;;;;;;4.90;4.50;;;21.20;84.20;21.80;96982.00;;;;5025048;28;20200;-83
2022/06/28 03:32:50;;;;;;;4.23;3.90;;;21.20;84.30;21.80;96999.00;;;;5033986;28;20705;-84
2022/06/28 03:35:19;;;;;;;4.67;4.27;;;21.20;85.00;21.70;96993.00;;;;5033646;28;20216;-83
2022/06/28 03:37:46;;;;;;;4.20;3.90;;;21.10;84.40;21.70;96996.00;;;;5018436;28;20236;-83
2022/06/28 03:40:13;;;;;;;3.60;3.40;;;21.10;84.50;21.70;96991.00;;;;5014340;28;20261;-83
2022/06/28 03:42:40;;;;;;;4.40;3.33;;;21.10;84.60;21.70;97001.00;;;;5013466;28;20241;-84
2022/06/28 03:45:08;;;;;;;3.93;3.63;;;21.10;84.60;21.70;97002.00;;;;5014003;28;20250;-83
2022/06/28 03:47:36;;;;;;;3.87;3.40;;;21.10;84.70;21.70;97000.00;;;;5014816;28;20233;-83
2022/06/28 03:50:03;;;;;;;3.90;3.37;;;21.10;84.70;21.70;97008.00;;;;5014855;28;20200;-84
2022/06/28 03:52:32;;;;;;;4.10;3.70;;;21.10;84.90;21.70;97018.00;;;;5015433;28;20607;-84
2022/06/28 03:55:00;;;;;;;3.67;3.37;;;21.10;85.00;21.70;97011.00;;;;4996496;28;20225;-83
2022/06/28 03:57:28;;;;;;;3.73;3.43;;;21.10;85.20;21.80;97025.00;;;;4995209;28;20245;-83
2022/06/28 03:59:56;;;;;;;4.20;3.90;;;21.10;85.20;21.80;97015.00;;;;4995004;28;20844;-83
2022/06/28 04:02:23;;;;;;;4.03;3.73;;;21.10;85.30;21.80;97024.00;;;;5019218;28;20205;-83
2022/06/28 04:04:51;;;;;;;4.27;3.87;;;21.10;85.50;21.80;97019.00;;;;5001049;28;20214;-83
2022/06/28 04:07:18;;;;;;;3.63;3.33;;;21.20;85.60;21.80;97019.00;;;;5034519;28;20232;-83
2022/06/28 04:09:46;;;;;;;5.73;3.37;;;21.20;85.60;21.90;97010.00;;;;5026893;28;20234;-83
2022/06/28 04:12:14;;;;;;;4.77;3.53;;;21.20;85.80;21.90;97015.00;;;;5015092;28;20232;-83
2022/06/28 04:14:41;;;;;;;3.37;3.17;;;21.20;85.80;21.90;97015.00;;;;5026374;28;20194;-83
2022/06/28 04:17:08;;;;;;;3.80;3.50;;;21.20;85.80;21.90;97015.00;;;;5021689;28;20229;-83
2022/06/28 04:19:35;;;;;;;3.53;3.23;;;21.30;85.90;22.00;97008.00;;;;5013602;28;20244;-81
2022/06/28 04:22:02;;;;;;;3.87;3.57;;;21.30;85.90;22.00;97002.00;;;;5013879;28;20218;-81
2022/06/28 04:24:29;;;;;;;4.10;3.70;;;21.30;85.70;22.00;97002.00;;;;5009303;28;20278;-81
2022/06/28 04:26:58;;;;;;;3.97;3.67;;;21.30;85.40;22.00;97001.00;;;;5008638;28;20225;-81
2022/06/28 04:29:25;;;;;;;3.80;3.50;;;21.40;85.30;22.00;97006.00;;;;5025001;28;20640;-81
2022/06/28 04:31:52;;;;;;;4.73;3.50;;;21.40;85.20;22.00;97010.00;;;;5015351;28;20229;-81
2022/06/28 04:34:19;;;;;;;4.07;3.70;;;21.40;85.10;22.10;97008.00;;;;4998501;28;20676;-81
2022/06/28 04:36:46;;;;;;;4.00;3.63;;;21.40;85.10;22.10;97014.00;;;;4999108;28;20206;-81
2022/06/28 04:39:14;;;;;;;3.63;3.37;;;21.30;85.20;22.10;97014.00;;;;5015223;28;20260;-81
2022/06/28 04:41:41;;;;;;;3.97;3.40;;;21.40;85.40;22.20;97027.00;;;;5032582;28;20223;-81
2022/06/28 04:44:09;;;;;;;4.00;3.70;;;21.40;85.60;22.20;97015.00;;;;5017054;28;20210;-82
2022/06/28 04:46:36;;;;;;;3.60;3.30;;;21.40;85.80;22.30;97013.00;;;;5004059;28;20452;-81
2022/06/28 04:49:03;;;;;;;3.40;3.20;;;21.40;85.80;22.30;97017.00;;;;5006293;28;20198;-83
2022/06/28 04:51:31;;;;;;;3.97;3.57;;;21.50;85.80;22.30;97023.00;;;;4993903;28;20651;-82
2022/06/28 04:53:58;;;;;;;3.73;3.53;;;21.50;85.60;22.30;97015.00;;;;4996384;28;20230;-81
2022/06/28 04:56:25;;;;;;;4.00;3.60;;;21.60;85.60;22.40;97010.00;;;;5005999;28;20447;-80
2022/06/28 04:58:52;;;;;;;4.50;3.83;;;21.60;85.50;22.40;97018.00;;;;5038719;28;20193;-82
2022/06/28 05:01:21;;;;;;;4.50;4.10;;;21.60;85.50;22.50;97024.00;;;;5013735;28;20682;-82
2022/06/28 05:03:48;;;;;;;4.00;3.50;;;21.60;85.60;22.50;97020.00;;;;5004638;28;20253;-82
2022/06/28 05:06:15;;;;;;;3.90;3.50;;;21.70;85.70;22.50;97014.00;;;;5011407;28;20252;-82
2022/06/28 05:08:42;;;;;;;3.90;3.47;;;21.70;85.80;22.60;97010.00;;;;5013084;28;20287;-82
2022/06/28 05:11:09;;;;;;;3.80;3.43;;;21.70;85.70;22.70;97013.00;;;;5010115;28;20214;-81
2022/06/28 05:13:37;;;;;;;3.93;3.63;;;21.80;85.90;22.70;97015.00;;;;5004758;28;20281;-82
2022/06/28 05:16:05;;;;;;;3.90;3.60;;;21.80;85.90;22.80;97015.00;;;;5015409;28;20309;-82
2022/06/28 05:18:33;;;;;;;3.67;3.23;;;21.90;85.80;22.80;97005.00;;;;5000136;28;20652;-82
2022/06/28 05:21:00;;;;;;;3.53;3.33;;;21.90;85.60;22.80;97007.00;;;;4993020;28;20226;-81
2022/06/28 05:23:28;;;;;;;7.20;3.40;;;22.00;85.50;22.90;97006.00;;;;4993418;28;20647;-81
2022/06/28 05:25:55;;;;;;;4.40;3.37;;;22.00;86.10;22.90;97000.00;;;;5000080;28;20250;-81
2022/06/28 05:28:22;;;;;;;3.50;3.20;;;22.00;85.30;23.00;96996.00;;;;5013853;28;20268;-81
2022/06/28 05:30:49;;;;;;;2.97;2.77;;;22.10;86.10;23.00;97000.00;;;;5036868;28;20185;-81
2022/06/28 05:33:18;;;;;;;3.50;3.20;;;22.10;85.40;23.00;96993.00;;;;5047544;28;20189;-82
2022/06/28 05:35:46;;;;;;;3.13;2.93;;;22.10;85.10;23.10;96997.00;;;;5011665;28;21150;-82
2022/06/28 05:38:13;;;;;;;3.07;2.87;;;22.20;85.20;23.10;96999.00;;;;5007725;28;20217;-82
2022/06/28 05:40:41;;;;;;;2.93;2.73;;;22.20;85.30;23.20;96989.00;;;;5011770;28;20253;-82
2022/06/28 05:43:08;;;;;;;3.07;2.80;;;22.30;85.30;23.20;96966.00;;;;4994320;28;20229;-82
2022/06/28 05:45:35;;;;;;;2.60;2.40;;;22.30;84.80;23.20;96959.00;;;;5004484;28;20600;-82
2022/06/28 05:48:03;;;;;;;2.53;2.40;;;22.30;84.20;23.20;96963.00;;;;5020593;28;20222;-82
2022/06/28 05:50:31;;;;;;;2.90;2.70;;;22.40;83.80;23.20;96960.00;;;;5007466;28;20198;-81
2022/06/28 05:52:59;;;;;;;2.77;2.57;;;22.30;83.80;23.20;96963.00;;;;5009727;28;20209;-82
2022/06/28 05:55:26;;;;;;;2.60;2.40;;;22.40;83.60;23.20;96963.00;;;;5005643;28;20766;-82
2022/06/28 05:57:55;;;;;;;3.07;2.30;;;22.40;83.40;23.20;96955.00;;;;5030476;28;20230;-82
2022/06/28 06:00:22;;;;;;;2.60;2.40;;;22.40;83.40;23.30;96957.00;;;;5019266;28;20198;-82
2022/06/28 06:02:49;;;;;;;2.33;2.20;;;22.40;83.70;23.30;96968.00;;;;5009325;28;20575;-83
2022/06/28 06:05:16;;;;;;;2.80;2.60;;;22.40;83.90;23.40;96965.00;;;;5002687;28;20246;-82
2022/06/28 06:07:43;;;;;;;2.60;2.40;;;22.50;84.10;23.40;96969.00;;;;5019700;28;20206;-82
2022/06/28 06:10:12;;;;;;;2.97;2.13;;;22.50;83.90;23.50;96962.00;;;;5013004;28;20574;-82
2022/06/28 06:12:39;;;;;;;2.10;2.00;;;22.50;83.50;23.50;96955.00;;;;5013699;28;20675;-82
2022/06/28 06:15:08;;;;;;;2.37;2.20;;;22.60;83.40;23.60;96952.00;;;;5014562;28;20215;-82
2022/06/28 06:17:35;;;;;;;2.13;2.00;;;22.60;83.20;23.60;96941.00;;;;5008695;28;20263;-82
2022/06/28 06:20:03;;;;;;;2.20;2.00;;;22.60;82.90;23.60;96936.00;;;;5008781;28;20193;-81
2022/06/28 06:22:30;;;;;;;2.57;1.80;;;22.70;83.00;23.70;96937.00;;;;5027508;28;20218;-82
2022/06/28 06:24:58;;;;;;;2.40;2.30;;;22.70;82.90;23.70;96938.00;;;;5022045;28;20305;-81
2022/06/28 06:27:26;;;;;;;2.37;2.17;;;22.80;82.70;23.80;96932.00;;;;5009318;28;20231;-81
2022/06/28 06:29:53;;;;;;;2.10;2.00;;;22.80;82.60;23.90;96947.00;;;;5020230;28;20580;-82
2022/06/28 06:32:21;;;;;;;2.10;2.00;;;22.80;82.80;23.90;96949.00;;;;5016276;28;20244;-83
2022/06/28 06:34:48;;;;;;;2.60;1.77;;;22.90;83.10;24.00;96952.00;;;;5014612;28;20217;-82
2022/06/28 06:37:16;;;;;;;2.50;2.30;;;22.90;82.60;24.10;96945.00;;;;5015535;28;20217;-82
2022/06/28 06:39:43;;;;;;;2.23;2.03;;;23.00;82.20;24.10;96932.00;;;;5021571;28;20631;-82
2022/06/28 06:42:10;;;;;;;2.27;2.17;;;23.00;81.90;24.10;96931.00;;;;5018142;28;20312;-82
2022/06/28 06:44:38;;;;;;;1.93;1.83;;;23.10;81.80;24.10;96937.00;;;;5000278;28;20265;-83
2022/06/28 06:47:06;;;;;;;2.50;2.30;;;23.10;81.60;24.20;96945.00;;;;5002512;28;20217;-81
2022/06/28 06:49:33;;;;;;;2.17;2.07;;;23.10;81.60;24.20;96945.00;;;;5008483;28;20198;-81
2022/06/28 06:52:00;;;;;;;2.27;2.17;;;23.20;81.80;24.20;96950.00;;;;5006325;28;20208;-81
2022/06/28 06:54:28;;;;;;;2.47;2.37;;;23.20;81.70;24.30;96956.00;;;;5016467;28;20263;-82
2022/06/28 06:56:55;;;;;;;2.20;2.10;;;23.20;81.20;24.30;96951.00;;;;5012866;28;20534;-81
2022/06/28 06:59:22;;;;;;;2.23;2.03;;;23.30;81.40;24.30;96972.00;;;;4998507;28;20236;-82
2022/06/28 07:01:50;;;;;;;2.57;2.37;;;23.30;81.00;24.40;96970.00;;;;5012909;28;20265;-82
2022/06/28 07:04:18;;;;;;;2.07;1.97;;;23.30;80.80;24.40;96969.00;;;;5016516;28;20202;-82
2022/06/28 07:06:45;;;;;;;2.10;2.00;;;23.40;80.90;24.50;96973.00;;;;5013468;28;20229;-82
2022/06/28 07:09:14;;;;;;;2.10;2.00;;;23.40;80.80;24.50;96964.00;;;;5005647;28;20263;-82
2022/06/28 07:11:42;;;;;;;2.40;2.30;;;23.50;80.60;24.50;96958.00;;;;5005751;28;20247;-82
2022/06/28 07:14:09;;;;;;;1.83;1.73;;;23.50;80.30;24.50;96944.00;;;;5009530;28;20191;-82
2022/06/28 07:16:36;;;;;;;2.10;2.00;;;23.50;79.90;24.50;96933.00;;;;5026317;28;20219;-82
2022/06/28 07:19:05;;;;;;;2.97;1.73;;;23.50;79.90;24.60;96935.00;;;;5025186;28;20222;-82
2022/06/28 07:21:32;;;;;;;2.70;1.60;;;23.60;80.40;24.70;96927.00;;;;5024052;28;20278;-82
2022/06/28 07:24:01;;;;;;;1.77;1.67;;;23.60;80.10;24.80;96918.00;;;;5029808;28;20728;-83
2022/06/28 07:26:28;;;;;;;2.03;1.90;;;23.70;80.60;24.90;96922.00;;;;5030060;28;20602;-83
2022/06/28 07:28:55;;;;;;;1.80;1.53;;;23.80;80.90;25.10;96920.00;;;;5015797;28;20204;-83
2022/06/28 07:31:22;;;;;;;2.23;2.00;;;23.90;81.40;25.20;96917.00;;;;5015928;28;20299;-82
2022/06/28 07:33:49;;;;;;;5.03;2.40;;;24.00;81.40;25.30;96923.00;;;;5018462;28;20674;-83
2022/06/28 07:36:18;;;;;;;2.10;1.90;;;24.00;81.40;25.50;96929.00;;;;5009970;28;20251;-83
2022/06/28 07:38:45;;;;;;;1.80;1.70;;;24.20;80.90;25.50;96940.00;;;;5015875;28;20194;-83
2022/06/28 07:41:12;;;;;;;2.23;1.60;;;24.30;80.10;25.50;96940.00;;;;5021677;28;20311;-83
2022/06/28 07:43:39;;;;;;;1.97;1.67;;;24.30;78.90;25.50;96941.00;;;;5020436;28;20241;-83
2022/06/28 07:46:06;;;;;;;1.77;1.67;;;24.40;77.60;25.50;96939.00;;;;5033669;28;20292;-83
2022/06/28 07:48:34;;;;;;;1.47;1.47;;;24.40;77.20;25.50;96945.00;;;;5022422;28;20230;-82
2022/06/28 07:53:43;;;;;;;1.57;1.47;;;24.40;78.20;25.70;96955.00;;;;5011885;28;20256;-83
2022/06/28 07:56:11;;;;;;;1.30;1.20;;;24.50;78.10;25.80;96969.00;;;;5036400;28;20217;-83
2022/06/28 07:58:39;;;;;;;1.40;1.30;;;24.60;77.00;25.80;96982.00;;;;5040079;28;20284;-84
2022/06/28 08:01:07;;;;;;;1.63;1.30;;;24.60;76.70;25.80;96981.00;;;;5034272;28;20208;-82
2022/06/28 08:03:35;;;;;;;1.80;1.70;;;24.70;76.20;25.80;96991.00;;;;5047390;28;20230;-82
2022/06/28 08:06:02;;;;;;;1.50;1.40;;;24.70;76.60;25.90;97004.00;;;;5031369;28;20244;-83
2022/06/28 08:08:29;;;;;;;2.10;1.33;;;24.70;76.40;25.90;97013.00;;;;5029796;28;20224;-82
2022/06/28 08:10:58;;;;;;;1.23;1.23;;;24.70;75.80;26.00;97001.00;;;;5035612;28;20241;-83
2022/06/28 08:13:25;;;;;;;1.60;1.50;;;24.80;76.00;26.00;97007.00;;;;5011196;28;20277;-83
2022/06/28 08:15:53;;;;;;;1.60;1.50;;;24.80;76.30;26.00;97002.00;;;;5021242;28;20245;-84
2022/06/28 08:18:20;;;;;;;1.33;1.33;;;24.80;75.50;26.00;96989.00;;;;5018651;28;20628;-83
2022/06/28 08:20:48;;;;;;;1.50;1.40;;;24.80;75.20;26.00;96993.00;;;;5015305;28;20625;-84
2022/06/28 08:23:16;;;;;;;1.73;1.63;;;24.90;75.20;26.10;96985.00;;;;5028738;28;20221;-83
2022/06/28 08:25:43;;;;;;;1.23;1.17;;;24.90;75.40;26.10;96990.00;;;;5022810;28;20639;-83
2022/06/28 08:28:12;;;;;;;1.83;1.30;;;24.90;74.70;26.20;96986.00;;;;5017431;28;20198;-83
2022/06/28 08:30:40;;;;;;;1.70;1.37;;;24.90;75.60;26.30;96985.00;;;;5015404;28;20702;-83
2022/06/28 08:33:08;;;;;;;1.20;1.20;;;25.00;74.70;26.40;97000.00;;;;5021876;28;20229;-82
2022/06/28 08:35:35;;;;;;;1.30;1.20;;;25.10;75.00;26.50;96991.00;;;;5021840;28;20228;-82
2022/06/28 08:38:04;;;;;;;1.07;1.07;;;25.10;75.00;26.50;96993.00;;;;5027030;28;20194;-83
2022/06/28 08:40:33;;;;;;;1.27;1.17;;;25.20;74.50;26.50;96986.00;;;;5017606;28;20232;-82
2022/06/28 08:43:02;;;;;;;1.27;1.20;;;25.20;73.10;26.50;96983.00;;;;5034813;28;20320;-82
2022/06/28 08:45:31;;;;;;;1.10;1.00;;;25.20;72.60;26.50;96983.00;;;;5013085;28;20249;-83
2022/06/28 08:48:02;;;;;;;1.40;1.30;;;25.30;72.50;26.40;96969.00;;;;5028247;28;20193;-82
2022/06/28 08:50:35;;;;;;;2.77;1.20;;;25.30;72.70;26.30;96962.00;;;;5027028;28;20729;-82
2022/06/28 08:53:05;;;;;;;1.50;1.40;;;25.30;71.90;26.30;96960.00;;;;5027496;28;20304;-82
2022/06/28 08:55:35;;;;;;;1.20;1.20;;;25.20;71.90;26.50;96954.00;;;;5028062;28;20691;-82
2022/06/28 08:58:06;;;;;;;1.40;1.30;;;25.30;73.40;26.60;96951.00;;;;5033332;28;20748;-82
2022/06/28 09:00:35;;;;;;;1.27;1.20;;;25.40;73.40;26.80;96941.00;;;;5025092;28;20240;-82
2022/06/28 09:03:03;;;;;;;1.20;1.10;;;25.40;72.40;27.00;96941.00;;;;5005406;28;20726;-83
2022/06/28 09:05:30;;;;;;;1.10;1.10;;;25.50;72.50;27.20;96929.00;;;;5027898;28;20229;-81
2022/06/28 09:07:59;;;;;;;2.70;1.20;;;25.60;72.90;27.40;96935.00;;;;5012905;28;20272;-82
2022/06/28 09:10:27;;;;;;;1.40;1.30;;;25.80;73.90;27.60;96926.00;;;;5018430;28;20292;-84
2022/06/28 09:13:07;;;;;;;2.00;1.40;;;25.90;73.70;27.90;96918.00;;;;5010996;28;20271;-83
2022/06/28 09:15:51;;;;;;;1.27;1.27;;;26.10;74.10;28.10;96916.00;;;;5006190;28;20778;-84
2022/06/28 09:18:19;;;;;;;1.50;1.40;;;26.30;71.60;28.30;96924.00;;;;5020677;28;21951;-84
2022/06/28 09:20:46;;;;;;;2.10;1.37;;;26.50;72.40;28.50;96930.00;;;;5003318;28;20280;-83
2022/06/28 09:23:28;;;;;;;1.45;1.40;;;26.70;71.50;28.70;96926.00;;;;5001353;28;20245;-83
2022/06/28 09:25:58;;;;;;;1.40;1.40;;;26.90;71.70;29.00;96925.00;;;;5006761;28;20248;-83
2022/06/28 09:28:29;;;;;;;1.20;1.20;;;27.10;72.30;29.30;96911.00;;;;4998835;28;20198;-83
2022/06/28 09:31:19;;;;;;;1.30;1.30;;;27.30;71.40;29.40;96914.00;;;;5019092;28;20578;-83
2022/06/28 09:33:49;;;;;;;1.60;1.50;;;27.50;67.30;29.40;96910.00;;;;5023747;28;20265;-83
2022/06/28 09:36:18;;;;;;;1.60;1.60;;;27.70;68.40;29.50;96914.00;;;;5023268;28;20785;-83
2022/06/28 09:38:45;;;;;;;2.05;1.90;;;27.80;68.50;29.70;96924.00;;;;5011720;28;20576;-83
2022/06/28 09:41:25;;;;;;;1.40;1.40;;;28.00;67.20;29.90;96922.00;;;;5009255;28;20190;-83
2022/06/28 09:43:58;;;;;;;1.67;1.58;;;28.20;67.10;30.00;96920.00;;;;5012938;28;20675;-83
2022/06/28 09:46:30;;;;;;;2.20;1.40;;;28.30;66.20;30.10;96927.00;;;;5014384;28;20253;-82
2022/06/28 09:48:59;;;;;;;1.73;1.63;;;28.40;65.60;30.20;96921.00;;;;5005195;28;20217;-81
2022/06/28 09:51:29;;;;;;;2.10;2.00;;;28.60;66.20;30.20;96915.00;;;;5003592;28;20202;-81
2022/06/28 09:54:00;;;;;;;1.70;1.60;;;28.70;64.80;30.10;96909.00;;;;5010688;28;20528;-81
2022/06/28 09:56:29;;;;;;;1.80;1.70;;;28.70;63.50;30.10;96904.00;;;;5012804;28;20222;-81
2022/06/28 09:58:56;;;;;;;1.80;1.70;;;28.70;63.40;30.10;96897.00;;;;5015315;28;20236;-82
2022/06/28 10:01:26;;;;;;;3.45;2.10;;;28.70;63.60;30.10;96898.00;;;;5021208;28;20264;-82
2022/06/28 10:03:55;;;;;;;1.90;1.80;;;28.70;63.90;30.20;96901.00;;;;5013567;28;20253;-82
2022/06/28 10:06:22;;;;;;;1.65;1.60;;;28.80;65.60;30.30;96896.00;;;;5030464;28;20222;-81
2022/06/28 10:08:50;;;;;;;1.70;1.60;;;28.80;65.10;30.30;96887.00;;;;5020874;28;20228;-81
2022/06/28 10:11:19;;;;;;;1.30;1.30;;;28.90;63.50;30.40;96882.00;;;;5020338;28;20205;-81
2022/06/28 10:16:47;;;;;;;1.80;1.70;;;29.00;63.10;30.50;96891.00;;;;5018143;28;20228;-81
2022/06/28 10:19:19;;;;;;;1.70;1.60;;;29.10;63.00;30.60;96885.00;;;;5016775;28;20230;-81
2022/06/28 10:22:07;;;;;;;1.60;1.50;;;29.10;62.40;30.60;96876.00;;;;5016606;28;20206;-81
2022/06/28 10:24:53;;;;;;;1.52;1.40;;;29.10;62.80;30.60;96869.00;;;;5027885;28;20220;-80
2022/06/28 10:27:21;;;;;;;2.13;1.85;;;29.20;61.80;30.60;96867.00;;;;5026643;28;20233;-80
2022/06/28 10:30:36;;;;;;;1.63;1.63;;;29.30;62.50;30.70;96873.00;;;;5031529;28;20198;-80
2022/06/28 10:33:06;;;;;;;1.10;1.10;;;29.30;61.70;30.70;96874.00;;;;5027755;28;20231;-80
2022/06/28 10:36:13;;;;;;;1.30;1.25;;;29.40;62.40;30.70;96880.00;;;;5039069;28;20275;-80
2022/06/28 10:39:16;;;;;;;1.30;1.30;;;29.40;61.20;30.70;96865.00;;;;4992515;28;20237;-80
2022/06/28 10:41:46;;;;;;;1.40;1.30;;;29.40;61.00;30.70;96853.00;;;;5014700;28;20197;-80
2022/06/28 10:44:16;;;;;;;1.30;1.20;;;29.50;61.40;30.70;96860.00;;;;5015432;28;20224;-81
2022/06/28 10:46:50;;;;;;;4.18;2.40;;;29.50;61.30;30.80;96855.00;;;;5026347;28;20193;-81
2022/06/28 10:49:17;;;;;;;1.90;1.70;;;29.50;61.40;30.80;96855.00;;;;5018315;28;20298;-81
2022/06/28 10:52:14;;;;;;;1.27;1.20;;;29.50;61.90;30.70;96844.00;;;;5028025;28;20722;-80
2022/06/28 10:55:09;;;;;;;1.15;1.15;;;29.50;60.70;30.70;96842.00;;;;5044352;28;20228;-80
2022/06/28 10:57:40;;;;;;;1.00;1.00;;;29.50;61.60;30.70;96845.00;;;;5014716;28;20224;-81
2022/06/28 11:00:10;;;;;;;0.90;0.90;;;29.50;61.60;30.70;96842.00;;;;5031065;28;20193;-81
2022/06/28 11:02:58;;;;;;;1.00;1.00;;;29.40;61.50;30.70;96847.00;;;;5039112;28;20369;-81
2022/06/28 11:05:53;;;;;;;1.17;1.10;;;29.40;61.20;30.60;96847.00;;;;5023857;28;20275;-81
2022/06/28 11:08:46;;;;;;;1.10;1.10;;;29.40;60.70;30.60;96841.00;;;;5025309;28;20198;-81
2022/06/28 11:11:13;;;;;;;1.23;1.13;;;29.40;61.00;30.50;96832.00;;;;5025479;28;20682;-81
2022/06/28 11:13:40;;;;;;;1.17;1.10;;;29.30;61.50;30.40;96826.00;;;;5032241;28;20260;-80
2022/06/28 11:16:31;;;;;;;1.10;1.10;;;29.20;61.50;30.40;96830.00;;;;5032112;28;20214;-80
2022/06/28 11:19:07;;;;;;;1.40;1.30;;;29.20;60.50;30.30;96841.00;;;;5020710;28;20189;-81